Time;durP1;ratioP1;P1;durP2;ratioP2;P2;SDS_P1;SDS_P2;PMS_P1;PMS_P2;Temp;Humidity;BMP_temperature;BMP_pressure;BME280_temperature;BME280_humidity;BME280_pressure;Samples;Min_cycle;Max_cycle;Signal;HPM_P1;HPM_P2
2021/06/10 00:03:18;;;;;;;3.35;1.20;;;17.20;91.60;;;;;;10504003;28;20388;-62
2021/06/10 00:08:20;;;;;;;1.20;1.20;;;17.10;92.10;;;;;;10504200;28;20052;-62
2021/06/10 00:13:22;;;;;;;1.15;1.10;;;17.20;91.20;;;;;;10504007;28;20049;-62
2021/06/10 00:18:24;;;;;;;1.15;1.00;;;17.10;90.90;;;;;;10503743;28;20385;-62
2021/06/10 00:23:26;;;;;;;1.33;1.23;;;17.00;91.60;;;;;;10503333;28;20044;-62
2021/06/10 00:28:28;;;;;;;2.75;1.25;;;17.00;91.10;;;;;;10503460;28;20048;-62
2021/06/10 00:33:30;;;;;;;2.50;1.13;;;17.00;92.10;;;;;;10502786;28;20048;-62
2021/06/10 00:38:32;;;;;;;2.17;1.33;;;16.90;91.80;;;;;;10503372;28;20045;-62
2021/06/10 00:43:34;;;;;;;1.60;1.50;;;16.70;93.20;;;;;;10501320;28;20051;-62
2021/06/10 00:48:36;;;;;;;1.60;1.50;;;16.50;93.00;;;;;;10484646;28;20493;-63
2021/06/10 00:53:38;;;;;;;1.92;1.20;;;16.50;93.10;;;;;;10502001;28;20499;-62
2021/06/10 00:58:40;;;;;;;1.50;1.40;;;16.40;93.50;;;;;;10502171;28;20044;-63
2021/06/10 01:03:42;;;;;;;2.03;1.60;;;16.40;93.80;;;;;;10502239;28;20040;-62
2021/06/10 01:09:04;;;;;;;3.17;1.40;;;16.40;93.60;;;;;;10501299;28;20495;-62
2021/06/10 01:14:24;;;;;;;4.43;1.63;;;16.30;94.20;;;;;;10501161;28;20408;-62
2021/06/10 01:19:41;;;;;;;1.23;1.20;;;16.30;93.90;;;;;;10500922;28;20045;-62
2021/06/10 01:24:49;;;;;;;2.75;1.45;;;16.30;93.80;;;;;;10501386;28;20052;-61
2021/06/10 01:30:18;;;;;;;1.77;1.65;;;16.30;93.40;;;;;;10500459;28;20052;-63
2021/06/10 01:35:24;;;;;;;3.05;1.50;;;16.30;93.30;;;;;;10500485;28;20045;-62
2021/06/10 01:40:27;;;;;;;2.22;1.58;;;16.20;94.70;;;;;;10500433;28;20051;-62
2021/06/10 01:45:30;;;;;;;1.98;1.83;;;16.20;93.30;;;;;;10482082;28;20037;-62
2021/06/10 01:50:32;;;;;;;3.28;2.00;;;16.20;94.60;;;;;;10482318;28;20045;-62
2021/06/10 01:55:37;;;;;;;3.65;2.20;;;16.30;95.00;;;;;;10499295;28;20357;-61
2021/06/10 02:00:41;;;;;;;2.08;1.98;;;16.10;95.50;;;;;;10499506;28;20067;-62
2021/06/10 02:05:44;;;;;;;2.70;1.92;;;16.00;95.10;;;;;;10497995;28;20040;-62
2021/06/10 02:10:52;;;;;;;4.18;1.90;;;15.90;95.90;;;;;;10498407;28;20045;-62
2021/06/10 02:16:02;;;;;;;4.57;2.95;;;15.80;97.00;;;;;;10498900;28;20051;-62
2021/06/10 02:21:08;;;;;;;2.72;2.10;;;15.60;97.70;;;;;;10498096;28;20048;-61
2021/06/10 02:26:12;;;;;;;2.63;2.00;;;15.60;97.70;;;;;;10498779;28;20041;-62
2021/06/10 02:31:14;;;;;;;3.45;2.08;;;15.50;98.10;;;;;;10499420;28;20036;-62
2021/06/10 02:36:18;;;;;;;3.17;2.40;;;15.60;97.20;;;;;;10498502;28;20124;-62
2021/06/10 02:41:26;;;;;;;2.53;2.33;;;15.50;98.10;;;;;;10480682;28;20044;-62
2021/06/10 02:46:30;;;;;;;7.82;2.75;;;15.60;98.20;;;;;;10480214;28;20389;-62
2021/06/10 02:51:34;;;;;;;4.22;2.85;;;15.40;99.20;;;;;;10480460;28;20040;-62
2021/06/10 02:56:37;;;;;;;4.40;2.60;;;15.40;98.40;;;;;;10496907;28;20059;-62
2021/06/10 03:01:44;;;;;;;4.25;2.80;;;15.50;99.40;;;;;;10480299;28;20045;-62
2021/06/10 03:06:46;;;;;;;4.35;3.30;;;15.40;99.50;;;;;;10503431;28;20079;-62
2021/06/10 03:11:49;;;;;;;2.95;2.70;;;15.40;98.20;;;;;;10488870;28;20044;-62
2021/06/10 03:16:51;;;;;;;3.30;3.00;;;15.40;99.70;;;;;;10488273;28;20047;-62
2021/06/10 03:21:54;;;;;;;8.02;3.72;;;15.30;99.60;;;;;;10505928;28;20049;-62
2021/06/10 03:26:56;;;;;;;4.00;3.55;;;15.40;98.20;;;;;;10505280;28;20049;-62
2021/06/10 03:31:59;;;;;;;3.30;2.78;;;15.40;97.20;;;;;;10487915;28;20047;-62
2021/06/10 03:37:02;;;;;;;3.78;3.38;;;15.30;98.50;;;;;;10487371;28;20478;-62
2021/06/10 03:42:05;;;;;;;7.03;3.60;;;15.30;97.20;;;;;;10487710;28;20051;-62
2021/06/10 03:47:07;;;;;;;4.80;3.50;;;15.40;98.10;;;;;;10487237;28;20040;-62
2021/06/10 03:52:10;;;;;;;4.15;3.75;;;15.20;98.30;;;;;;10505188;28;20040;-62
2021/06/10 03:57:12;;;;;;;6.22;3.95;;;15.20;99.40;;;;;;10504493;28;20044;-62
2021/06/10 04:02:14;;;;;;;5.28;3.70;;;15.30;99.90;;;;;;10504410;28;20047;-62
2021/06/10 04:07:16;;;;;;;5.18;4.60;;;15.30;99.60;;;;;;10502950;28;20233;-62
2021/06/10 04:12:18;;;;;;;4.70;3.78;;;15.40;99.70;;;;;;10503644;28;20048;-62
2021/06/10 04:17:20;;;;;;;7.85;4.07;;;15.30;99.90;;;;;;10503130;28;20057;-62
2021/06/10 04:22:22;;;;;;;3.88;3.50;;;15.40;99.20;;;;;;10503496;28;20051;-62
2021/06/10 04:27:24;;;;;;;4.82;4.10;;;15.20;99.90;;;;;;10503047;28;20045;-62
2021/06/10 04:32:26;;;;;;;6.65;4.28;;;15.30;99.90;;;;;;10503527;28;20049;-63
2021/06/10 04:37:28;;;;;;;4.57;4.07;;;15.20;99.90;;;;;;10502413;28;20075;-63
2021/06/10 04:42:30;;;;;;;5.55;4.18;;;15.30;99.90;;;;;;10502466;28;20051;-62
2021/06/10 04:47:32;;;;;;;5.57;3.90;;;15.50;99.90;;;;;;10502498;28;20044;-63
2021/06/10 04:52:34;;;;;;;6.15;3.78;;;15.50;99.90;;;;;;10502910;28;20044;-62
2021/06/10 04:57:37;;;;;;;5.15;4.38;;;15.60;99.90;;;;;;10502238;28;20041;-63
2021/06/10 05:02:39;;;;;;;6.22;4.40;;;15.70;99.90;;;;;;10501665;28;20525;-63
2021/06/10 05:07:41;;;;;;;4.97;4.50;;;15.70;99.90;;;;;;10501346;28;20041;-62
2021/06/10 05:12:43;;;;;;;3.97;3.67;;;15.80;99.90;;;;;;10501009;28;20465;-62
2021/06/10 05:17:45;;;;;;;5.00;4.50;;;15.80;99.90;;;;;;10500955;28;20063;-62
2021/06/10 05:22:48;;;;;;;5.15;4.65;;;15.90;99.90;;;;;;10501144;28;20055;-63
2021/06/10 05:27:50;;;;;;;6.75;4.78;;;16.00;99.90;;;;;;10499986;28;20040;-62
2021/06/10 05:32:52;;;;;;;5.65;5.10;;;16.10;99.90;;;;;;10482909;28;20123;-62
2021/06/10 05:37:54;;;;;;;12.50;7.72;;;16.20;99.90;;;;;;10499970;28;20052;-63
2021/06/10 05:42:56;;;;;;;10.10;7.82;;;16.30;99.90;;;;;;10500454;28;20037;-62
2021/06/10 05:47:58;;;;;;;8.88;7.45;;;16.50;99.90;;;;;;10499723;28;20064;-63
2021/06/10 05:53:00;;;;;;;10.40;8.73;;;16.50;99.90;;;;;;10499762;28;20120;-63
2021/06/10 05:58:02;;;;;;;9.48;8.43;;;16.70;99.90;;;;;;10499633;28;20480;-64
2021/06/10 06:03:06;;;;;;;8.60;7.80;;;17.10;99.90;;;;;;10499550;28;20044;-64
2021/06/10 06:08:10;;;;;;;8.95;7.50;;;17.30;99.90;;;;;;10481736;28;20476;-63
2021/06/10 06:13:12;;;;;;;9.27;7.50;;;17.50;99.90;;;;;;10498975;28;20495;-63
2021/06/10 06:18:14;;;;;;;9.77;8.68;;;17.70;99.90;;;;;;10499709;28;20048;-64
2021/06/10 06:23:16;;;;;;;8.65;7.78;;;17.90;99.90;;;;;;10498978;28;20044;-63
2021/06/10 06:28:18;;;;;;;8.02;6.60;;;18.00;99.90;;;;;;10498358;28;20047;-64
2021/06/10 06:33:20;;;;;;;7.22;6.53;;;18.10;99.90;;;;;;10498649;28;20041;-63
2021/06/10 06:38:22;;;;;;;8.40;6.10;;;18.30;99.90;;;;;;10480084;28;20484;-64
2021/06/10 06:43:28;;;;;;;6.30;5.68;;;18.40;98.90;;;;;;10498161;28;20044;-64
2021/06/10 06:48:30;;;;;;;8.93;7.13;;;18.60;97.60;;;;;;10498324;28;20055;-64
2021/06/10 06:53:33;;;;;;;9.60;6.93;;;18.60;98.10;;;;;;10497958;28;20048;-64
2021/06/10 06:58:54;;;;;;;7.10;6.40;;;18.80;97.70;;;;;;10498086;28;20044;-64
2021/06/10 07:03:55;;;;;;;8.38;6.95;;;19.00;97.20;;;;;;10497723;28;20112;-64
2021/06/10 07:08:57;;;;;;;5.97;5.40;;;19.10;97.80;;;;;;10497981;28;20071;-64
2021/06/10 07:14:06;;;;;;;7.35;6.75;;;19.40;97.00;;;;;;10497703;28;20044;-64
2021/06/10 07:19:08;;;;;;;10.05;6.38;;;19.80;97.40;;;;;;10496515;28;20052;-63
2021/06/10 07:24:11;;;;;;;8.88;7.38;;;19.90;96.50;;;;;;10497562;28;20055;-64
2021/06/10 07:29:16;;;;;;;7.07;6.40;;;20.20;96.90;;;;;;10497134;28;20043;-64
2021/06/10 07:34:18;;;;;;;10.20;9.15;;;20.20;96.70;;;;;;10497202;28;20388;-64
2021/06/10 07:39:20;;;;;;;13.95;11.40;;;20.50;96.10;;;;;;10497874;28;20048;-64
2021/06/10 07:44:22;;;;;;;12.43;8.00;;;20.40;96.20;;;;;;10497494;28;20037;-64
2021/06/10 07:49:24;;;;;;;11.75;8.38;;;20.50;96.10;;;;;;10496969;28;20047;-64
2021/06/10 07:54:26;;;;;;;14.98;9.02;;;20.80;96.10;;;;;;10504110;28;20051;-64
2021/06/10 07:59:29;;;;;;;11.50;9.45;;;21.00;95.70;;;;;;10504155;28;20056;-64
2021/06/10 08:04:32;;;;;;;7.63;6.93;;;21.40;95.20;;;;;;10503980;28;20047;-63
2021/06/10 08:09:34;;;;;;;9.02;6.78;;;21.80;95.50;;;;;;10504159;28;20041;-63
2021/06/10 08:14:36;;;;;;;7.22;6.50;;;22.00;94.80;;;;;;10503715;28;20466;-64
2021/06/10 08:19:38;;;;;;;8.65;6.28;;;22.20;93.80;;;;;;10504288;28;20060;-64
2021/06/10 08:24:40;;;;;;;9.15;6.10;;;22.50;93.10;;;;;;10501290;28;20051;-63
2021/06/10 08:29:42;;;;;;;6.75;6.05;;;22.80;92.20;;;;;;10500900;28;20040;-63
2021/06/10 08:34:44;;;;;;;5.57;4.95;;;23.10;90.40;;;;;;10503042;28;20044;-63
2021/06/10 08:39:46;;;;;;;8.45;4.22;;;23.30;89.30;;;;;;10501951;28;20057;-63
2021/06/10 08:44:49;;;;;;;10.77;5.25;;;23.50;89.80;;;;;;10502548;28;20044;-63
2021/06/10 08:49:51;;;;;;;8.10;5.78;;;23.90;90.60;;;;;;10502553;28;20040;-63
2021/06/10 08:54:53;;;;;;;7.05;6.35;;;24.20;85.90;;;;;;10484930;28;20041;-63
2021/06/10 08:59:55;;;;;;;7.30;5.95;;;24.30;84.00;;;;;;10501831;28;20401;-63
2021/06/10 09:05:08;;;;;;;8.40;5.10;;;24.70;84.80;;;;;;10500635;28;20500;-63
2021/06/10 09:10:11;;;;;;;5.50;4.50;;;24.90;86.10;;;;;;10501429;28;20530;-64
2021/06/10 09:15:14;;;;;;;6.43;4.25;;;25.20;86.00;;;;;;10501006;28;20036;-64
2021/06/10 09:20:18;;;;;;;4.15;3.70;;;25.30;83.60;;;;;;10500410;28;20048;-63
2021/06/10 09:25:24;;;;;;;6.57;5.88;;;25.40;83.80;;;;;;10501032;28;20041;-62
2021/06/10 09:30:37;;;;;;;7.60;5.15;;;25.70;80.50;;;;;;10500761;28;20392;-62
2021/06/10 09:35:42;;;;;;;8.45;4.85;;;25.80;76.70;;;;;;10500364;28;20076;-62
2021/06/10 09:40:46;;;;;;;5.80;5.03;;;26.50;78.00;;;;;;10500693;28;20041;-62
2021/06/10 09:45:53;;;;;;;6.03;5.07;;;26.30;78.40;;;;;;10500151;28;20123;-62
2021/06/10 09:50:55;;;;;;;6.63;4.60;;;26.60;77.00;;;;;;10500016;28;20040;-62
2021/06/10 09:56:08;;;;;;;6.07;3.95;;;27.00;76.50;;;;;;10499940;28;20044;-62
2021/06/10 10:01:15;;;;;;;5.53;5.00;;;27.10;78.80;;;;;;10500153;28;20040;-62
2021/06/10 10:06:30;;;;;;;7.57;6.88;;;26.80;74.50;;;;;;10499527;28;20052;-62
2021/06/10 10:11:34;;;;;;;4.45;4.05;;;26.90;75.60;;;;;;10499547;28;20048;-62
2021/06/10 10:16:40;;;;;;;6.47;5.88;;;27.30;79.70;;;;;;10481474;28;20128;-62
2021/06/10 10:21:42;;;;;;;7.80;5.88;;;27.40;77.30;;;;;;10481200;28;20074;-62
2021/06/10 10:26:44;;;;;;;8.07;5.20;;;27.40;73.50;;;;;;10481075;28;20107;-62
2021/06/10 10:31:49;;;;;;;6.43;3.65;;;26.70;72.20;;;;;;10498687;28;20044;-62
2021/06/10 10:36:52;;;;;;;6.75;6.05;;;27.60;81.60;;;;;;10481345;28;20077;-62
2021/06/10 10:41:55;;;;;;;5.50;4.18;;;28.10;74.70;;;;;;10498673;28;20127;-62
2021/06/10 10:47:00;;;;;;;5.38;4.30;;;28.40;72.50;;;;;;10498173;28;20473;-62
2021/06/10 10:52:34;;;;;;;3.28;2.55;;;28.90;76.90;;;;;;10498381;28;20044;-62
2021/06/10 10:57:38;;;;;;;4.28;3.58;;;29.30;70.20;;;;;;10498229;28;20123;-62
2021/06/10 11:03:18;;;;;;;6.30;4.25;;;28.70;69.80;;;;;;10497888;28;20388;-62
2021/06/10 11:08:23;;;;;;;5.27;3.20;;;28.70;70.00;;;;;;10498383;28;20062;-62
2021/06/10 11:13:30;;;;;;;4.20;3.72;;;29.20;71.40;;;;;;10497618;28;20037;-62
2021/06/10 11:18:52;;;;;;;2.45;2.03;;;29.80;69.90;;;;;;10498032;28;20053;-62
2021/06/10 11:24:14;;;;;;;4.72;2.70;;;29.50;67.20;;;;;;10497533;28;20546;-62
2021/06/10 11:29:17;;;;;;;3.65;2.30;;;30.00;73.10;;;;;;10505615;28;20048;-62
2021/06/10 11:34:32;;;;;;;3.97;2.22;;;30.10;63.30;;;;;;10487781;28;20040;-62
2021/06/10 11:39:36;;;;;;;5.50;3.00;;;30.70;72.10;;;;;;10505710;28;20048;-62
2021/06/10 11:44:48;;;;;;;4.55;4.18;;;30.00;67.40;;;;;;10504805;28;20507;-62
2021/06/10 11:49:50;;;;;;;3.25;2.58;;;30.10;65.70;;;;;;10487386;28;20041;-62
2021/06/10 11:55:10;;;;;;;5.38;2.55;;;31.00;68.70;;;;;;10487237;28;20040;-62
2021/06/10 12:00:12;;;;;;;6.57;3.90;;;31.40;69.50;;;;;;10504652;28;20040;-62
2021/06/10 12:05:19;;;;;;;5.70;3.17;;;30.90;66.60;;;;;;10486646;28;20063;-64
2021/06/10 12:10:21;;;;;;;2.78;2.10;;;30.40;57.40;;;;;;10504558;28;20040;-63
2021/06/10 12:15:24;;;;;;;5.07;2.20;;;31.00;59.10;;;;;;10503925;28;20036;-63
2021/06/10 12:20:30;;;;;;;2.42;2.03;;;30.90;66.50;;;;;;10503618;28;20059;-63
2021/06/10 12:25:34;;;;;;;4.22;2.30;;;31.40;63.10;;;;;;10503880;28;20041;-63
2021/06/10 12:30:41;;;;;;;2.55;2.35;;;31.70;57.70;;;;;;10503363;28;20044;-63
2021/06/10 12:35:55;;;;;;;3.75;3.33;;;32.00;61.60;;;;;;10502995;28;20048;-63
2021/06/10 12:41:22;;;;;;;6.93;4.35;;;31.90;64.00;;;;;;10485516;28;20499;-62
2021/06/10 12:46:24;;;;;;;5.35;3.03;;;32.10;57.90;;;;;;10502977;28;20043;-63
2021/06/10 12:51:32;;;;;;;7.15;3.85;;;31.90;58.20;;;;;;10502582;28;20041;-63
2021/06/10 12:56:40;;;;;;;6.07;2.95;;;32.50;60.60;;;;;;10502687;28;20037;-64
2021/06/10 13:02:14;;;;;;;6.72;3.65;;;32.30;59.70;;;;;;10502582;28;20050;-63
2021/06/10 13:07:32;;;;;;;2.72;2.53;;;31.50;56.40;;;;;;10502002;28;20427;-63
2021/06/10 13:12:48;;;;;;;4.18;2.90;;;31.90;63.20;;;;;;10501740;28;20046;-63
2021/06/10 13:17:59;;;;;;;4.78;2.45;;;31.40;65.00;;;;;;10501809;28;20052;-64
2021/06/10 13:23:02;;;;;;;10.80;5.85;;;32.80;63.90;;;;;;10501679;28;20040;-62
2021/06/10 13:28:19;;;;;;;7.28;4.50;;;32.70;56.20;;;;;;10500906;28;20377;-64
2021/06/10 13:33:23;;;;;;;6.65;4.07;;;32.40;61.20;;;;;;10500696;28;20040;-62
2021/06/10 13:38:25;;;;;;;5.57;3.75;;;33.20;60.30;;;;;;10500715;28;20063;-63
2021/06/10 13:43:37;;;;;;;8.93;5.68;;;33.20;61.90;;;;;;10500456;28;20044;-64
2021/06/10 13:48:40;;;;;;;12.65;7.55;;;32.10;63.10;;;;;;10499810;28;20067;-62
2021/06/10 13:53:44;;;;;;;11.07;6.95;;;32.40;61.00;;;;;;10499904;28;20357;-61
2021/06/10 13:58:47;;;;;;;10.30;6.28;;;31.90;64.00;;;;;;10482699;28;20050;-64
2021/06/10 14:03:49;;;;;;;10.02;7.80;;;33.30;62.10;;;;;;10499107;28;20055;-64
2021/06/10 14:08:51;;;;;;;7.90;7.05;;;33.50;61.20;;;;;;10500190;28;20044;-62
2021/06/10 14:13:53;;;;;;;13.40;9.52;;;33.30;59.60;;;;;;10499747;28;20044;-63
2021/06/10 14:18:55;;;;;;;9.15;6.18;;;32.70;59.40;;;;;;10499281;28;20052;-62
2021/06/10 14:23:57;;;;;;;10.73;6.72;;;33.50;61.30;;;;;;10499055;28;20049;-64
2021/06/10 14:29:08;;;;;;;10.88;9.18;;;33.90;58.70;;;;;;10498764;28;20048;-64
2021/06/10 14:34:10;;;;;;;14.95;12.55;;;33.80;58.60;;;;;;10499133;28;20040;-64
2021/06/10 14:39:14;;;;;;;11.82;9.20;;;33.80;50.40;;;;;;10498503;28;20388;-62
2021/06/10 14:44:16;;;;;;;9.98;8.57;;;33.80;56.50;;;;;;10498497;28;20055;-62
2021/06/10 14:49:18;;;;;;;17.58;14.75;;;33.60;57.40;;;;;;10498228;28;20037;-63
2021/06/10 14:54:20;;;;;;;11.95;8.57;;;32.90;53.30;;;;;;10497996;28;20055;-62
2021/06/10 14:59:22;;;;;;;19.05;12.18;;;33.70;56.70;;;;;;10497850;28;20059;-63
2021/06/10 15:04:24;;;;;;;16.15;12.75;;;33.00;60.20;;;;;;10497463;28;20041;-62
2021/06/10 15:09:26;;;;;;;15.68;10.00;;;33.90;58.00;;;;;;10497767;28;20476;-63
2021/06/10 15:14:28;;;;;;;15.45;10.32;;;33.60;57.20;;;;;;10497485;28;20048;-62
2021/06/10 15:19:30;;;;;;;19.58;16.02;;;33.30;53.50;;;;;;10497785;28;20480;-62
2021/06/10 15:24:32;;;;;;;22.10;14.90;;;33.40;54.00;;;;;;10497690;28;20041;-61
2021/06/10 15:29:34;;;;;;;22.98;16.05;;;33.60;60.50;;;;;;10497364;28;20055;-61
2021/06/10 15:34:38;;;;;;;20.55;14.57;;;33.40;54.20;;;;;;10497408;28;20044;-62
2021/06/10 15:39:41;;;;;;;22.02;18.75;;;33.30;52.70;;;;;;10497556;28;20045;-61
2021/06/10 15:44:43;;;;;;;15.50;11.43;;;32.30;49.90;;;;;;10497109;28;20044;-61
2021/06/10 15:49:49;;;;;;;16.02;13.15;;;32.00;56.20;;;;;;10497268;28;20044;-62
2021/06/10 15:54:51;;;;;;;16.83;11.32;;;32.80;50.40;;;;;;10496792;28;20049;-61
2021/06/10 15:59:55;;;;;;;10.93;9.50;;;32.50;53.10;;;;;;10497321;28;20128;-61
2021/06/10 16:04:57;;;;;;;10.43;9.38;;;32.60;52.80;;;;;;10497156;28;20037;-61
2021/06/10 16:09:59;;;;;;;9.75;7.60;;;32.20;51.80;;;;;;10496715;28;20063;-62
2021/06/10 16:15:01;;;;;;;10.55;9.48;;;32.10;54.80;;;;;;10502901;28;20043;-61
2021/06/10 16:20:11;;;;;;;11.18;10.07;;;31.30;50.50;;;;;;10504841;28;20056;-61
2021/06/10 16:25:16;;;;;;;10.60;8.30;;;30.50;48.80;;;;;;10503594;28;20056;-62
2021/06/10 16:30:23;;;;;;;8.73;7.93;;;30.50;51.40;;;;;;10503155;28;20044;-62
2021/06/10 16:35:25;;;;;;;9.38;6.40;;;30.80;50.10;;;;;;10502854;28;20365;-61
2021/06/10 16:40:27;;;;;;;6.80;6.20;;;30.90;53.80;;;;;;10503788;28;20049;-61
2021/06/10 16:45:29;;;;;;;9.77;7.20;;;31.10;54.00;;;;;;10485391;28;20049;-62
2021/06/10 16:50:31;;;;;;;10.27;9.27;;;30.90;51.00;;;;;;10501409;28;20036;-62
2021/06/10 16:55:33;;;;;;;11.88;8.85;;;30.30;51.20;;;;;;10502144;28;20395;-61
2021/06/10 17:00:40;;;;;;;11.13;10.00;;;30.60;52.40;;;;;;10502538;28;20055;-62
2021/06/10 17:05:42;;;;;;;9.85;8.02;;;30.10;52.30;;;;;;10501922;28;20055;-61
2021/06/10 17:10:45;;;;;;;11.48;6.30;;;30.30;51.00;;;;;;10501951;28;20045;-61
2021/06/10 17:15:46;;;;;;;7.57;5.30;;;30.00;54.40;;;;;;10501615;28;20046;-61
2021/06/10 17:20:48;;;;;;;5.93;4.63;;;29.90;51.60;;;;;;10502088;28;20045;-62
2021/06/10 17:25:50;;;;;;;8.23;4.55;;;29.90;52.90;;;;;;10500324;28;20036;-63
2021/06/10 17:30:52;;;;;;;4.80;3.50;;;29.60;54.30;;;;;;10499780;28;20041;-61
2021/06/10 17:35:54;;;;;;;5.75;4.53;;;29.60;54.00;;;;;;10500695;28;20040;-63
2021/06/10 17:40:56;;;;;;;4.75;3.72;;;29.10;52.10;;;;;;10500639;28;20048;-61
2021/06/10 17:45:58;;;;;;;4.90;2.95;;;29.20;52.40;;;;;;10500061;28;20547;-62
2021/06/10 17:51:01;;;;;;;3.47;3.08;;;28.90;54.60;;;;;;10500326;28;20131;-62
2021/06/10 17:56:04;;;;;;;3.92;3.15;;;28.70;55.50;;;;;;10499799;28;20048;-62
2021/06/10 18:01:06;;;;;;;3.28;2.10;;;28.40;51.40;;;;;;10500020;28;20048;-62
2021/06/10 18:06:09;;;;;;;4.65;1.90;;;28.20;52.80;;;;;;10499552;28;20109;-62
2021/06/10 18:11:11;;;;;;;5.47;2.60;;;27.90;54.50;;;;;;10499600;28;20047;-61
2021/06/10 18:16:17;;;;;;;5.78;2.28;;;27.70;55.70;;;;;;10499299;28;20055;-61
2021/06/10 18:21:19;;;;;;;2.63;2.20;;;28.00;56.10;;;;;;10498998;28;20095;-62
2021/06/10 18:26:21;;;;;;;3.53;1.38;;;27.50;54.90;;;;;;10498733;28;20037;-61
2021/06/10 18:31:23;;;;;;;1.15;1.05;;;27.40;53.00;;;;;;10498546;28;20496;-62
2021/06/10 18:36:26;;;;;;;1.95;1.30;;;27.30;55.00;;;;;;10498591;28;20040;-62
2021/06/10 18:41:27;;;;;;;4.03;1.10;;;27.10;56.80;;;;;;10498645;28;20044;-62
2021/06/10 18:46:30;;;;;;;5.05;1.45;;;27.00;57.20;;;;;;10498242;28;20052;-63
2021/06/10 18:51:32;;;;;;;2.75;1.13;;;26.80;58.00;;;;;;10498243;28;20040;-63
2021/06/10 18:56:36;;;;;;;4.90;1.20;;;26.60;59.40;;;;;;10497915;28;20040;-62
2021/06/10 19:01:38;;;;;;;1.23;1.10;;;26.40;60.50;;;;;;10498539;28;20044;-63
2021/06/10 19:06:40;;;;;;;3.08;2.28;;;26.20;60.80;;;;;;10497802;28;20123;-63
2021/06/10 19:11:42;;;;;;;3.97;1.77;;;26.10;61.50;;;;;;10497960;28;20051;-61
2021/06/10 19:16:44;;;;;;;2.20;1.20;;;25.80;61.70;;;;;;10497614;28;20041;-62
2021/06/10 19:21:46;;;;;;;4.13;1.15;;;25.70;61.00;;;;;;10498043;28;20048;-62
2021/06/10 19:26:48;;;;;;;2.70;1.17;;;25.60;61.30;;;;;;10497608;28;20050;-63
2021/06/10 19:31:49;;;;;;;1.40;1.30;;;25.10;62.30;;;;;;10497249;28;20040;-64
2021/06/10 19:36:52;;;;;;;3.63;1.35;;;24.70;63.30;;;;;;10497428;28;20041;-62
2021/06/10 19:41:54;;;;;;;7.63;2.63;;;24.70;63.50;;;;;;10496058;28;20052;-61
2021/06/10 19:46:56;;;;;;;6.45;4.78;;;24.50;64.70;;;;;;10499742;28;20049;-61
2021/06/10 19:51:58;;;;;;;5.93;4.55;;;24.20;68.70;;;;;;10504763;28;20392;-61
2021/06/10 19:57:00;;;;;;;4.43;4.00;;;24.00;72.40;;;;;;10504523;28;20445;-62
2021/06/10 20:02:02;;;;;;;7.28;4.00;;;24.10;75.20;;;;;;10504435;28;20055;-61
2021/06/10 20:07:05;;;;;;;8.30;4.68;;;23.80;76.30;;;;;;10504053;28;20380;-61
2021/06/10 20:12:07;;;;;;;3.83;3.30;;;23.90;77.50;;;;;;10504657;28;20041;-61
2021/06/10 20:17:09;;;;;;;6.88;3.50;;;24.00;76.30;;;;;;10486127;28;20040;-61
2021/06/10 20:22:11;;;;;;;8.50;2.95;;;23.90;77.10;;;;;;10504231;28;20074;-63
2021/06/10 20:32:15;;;;;;;2.53;2.38;;;23.90;77.70;;;;;;10503557;28;20048;-62
2021/06/10 20:37:22;;;;;;;5.32;2.42;;;23.80;77.60;;;;;;10503012;28;20044;-62
2021/06/10 20:42:24;;;;;;;5.50;3.10;;;23.40;82.40;;;;;;10503073;28;20047;-61
2021/06/10 20:47:26;;;;;;;3.53;2.60;;;23.40;80.90;;;;;;10502870;28;20059;-61
2021/06/10 20:52:28;;;;;;;8.15;2.78;;;23.40;80.40;;;;;;10502710;28;20047;-61
2021/06/10 20:57:32;;;;;;;3.72;2.50;;;23.50;81.90;;;;;;10501053;28;20465;-62
2021/06/10 21:02:34;;;;;;;4.68;2.35;;;23.50;82.60;;;;;;10502233;28;20091;-62
2021/06/10 21:07:37;;;;;;;6.97;3.05;;;23.50;79.50;;;;;;10502003;28;20473;-62
2021/06/10 21:12:40;;;;;;;5.65;3.45;;;23.30;84.10;;;;;;10484009;28;20503;-61
2021/06/10 21:17:42;;;;;;;6.03;3.25;;;23.30;84.80;;;;;;10501128;28;20468;-62
2021/06/10 21:22:44;;;;;;;5.30;3.70;;;23.00;86.30;;;;;;10501279;28;20052;-62
2021/06/10 21:27:47;;;;;;;4.25;3.53;;;23.00;85.70;;;;;;10500951;28;20051;-62
2021/06/10 21:32:48;;;;;;;6.82;4.53;;;22.90;87.90;;;;;;10500939;28;20045;-62
2021/06/10 21:37:50;;;;;;;4.57;4.18;;;22.70;88.60;;;;;;10500776;28;20037;-62
2021/06/10 21:42:53;;;;;;;4.75;3.75;;;22.60;87.50;;;;;;10500489;28;20054;-60
2021/06/10 21:47:55;;;;;;;5.03;4.03;;;22.60;86.90;;;;;;10482741;28;20048;-60
2021/06/10 21:52:57;;;;;;;5.88;4.72;;;22.50;89.50;;;;;;10482048;28;20041;-61
2021/06/10 21:57:59;;;;;;;4.20;3.80;;;22.60;88.20;;;;;;10482098;28;20052;-61
2021/06/10 22:03:01;;;;;;;5.43;3.83;;;22.50;90.00;;;;;;10499387;28;20051;-62
2021/06/10 22:08:06;;;;;;;5.72;3.90;;;22.40;87.40;;;;;;10499979;28;20040;-61
2021/06/10 22:13:13;;;;;;;5.45;4.78;;;22.40;86.10;;;;;;10499230;28;20041;-61
2021/06/10 22:18:17;;;;;;;5.65;4.10;;;22.30;89.20;;;;;;10499134;28;20068;-61
2021/06/10 22:23:19;;;;;;;5.75;4.30;;;22.20;83.30;;;;;;10499495;28;20051;-61
2021/06/10 22:28:26;;;;;;;6.00;4.28;;;22.10;88.60;;;;;;10499077;28;20040;-61
2021/06/10 22:33:30;;;;;;;3.50;3.20;;;22.00;88.90;;;;;;10498453;28;20499;-61
2021/06/10 22:38:33;;;;;;;5.75;4.10;;;21.90;87.40;;;;;;10498680;28;20047;-61
2021/06/10 22:43:36;;;;;;;4.40;4.00;;;21.70;89.40;;;;;;10480829;28;20051;-62
2021/06/10 22:48:39;;;;;;;4.82;4.43;;;21.60;89.30;;;;;;10498851;28;20040;-61
2021/06/10 22:53:41;;;;;;;4.60;3.78;;;21.40;91.50;;;;;;10480496;28;20052;-61
2021/06/10 22:58:44;;;;;;;5.63;4.78;;;21.40;92.20;;;;;;10480550;28;20040;-62
2021/06/10 23:03:46;;;;;;;6.88;5.22;;;21.40;91.40;;;;;;10497983;28;20044;-60
2021/06/10 23:08:48;;;;;;;4.80;3.72;;;21.30;91.60;;;;;;10498215;28;20044;-62
2021/06/10 23:13:50;;;;;;;5.88;4.05;;;21.20;92.30;;;;;;10497564;28;20392;-61
2021/06/10 23:18:52;;;;;;;3.65;3.35;;;21.20;92.00;;;;;;10480042;28;20053;-62
2021/06/10 23:23:54;;;;;;;5.70;4.30;;;21.20;92.30;;;;;;10502926;28;20378;-61
2021/06/10 23:28:56;;;;;;;5.20;3.70;;;21.10;93.40;;;;;;10506544;28;20043;-61
2021/06/10 23:33:58;;;;;;;4.13;3.72;;;20.90;91.80;;;;;;10505535;28;20064;-62
2021/06/10 23:39:00;;;;;;;5.50;3.70;;;20.90;92.20;;;;;;10505656;28;20051;-60
2021/06/10 23:44:02;;;;;;;3.83;3.53;;;20.90;93.90;;;;;;10505415;28;20045;-62
2021/06/10 23:49:04;;;;;;;4.10;3.72;;;20.80;91.80;;;;;;10505234;28;20044;-62
2021/06/10 23:54:06;;;;;;;5.15;4.10;;;20.60;93.40;;;;;;10504747;28;20041;-62
2021/06/10 23:59:08;;;;;;;6.47;4.38;;;20.60;93.50;;;;;;10504998;28;20048;-61
